Impacts METAR Board
IDs:

KJAN - Jackson/Evers Intl, MS, US

Updated at: 0900 UTC 17 Aug 2018
Potential Impact None Slight Moderate High
Time 16/21Z 16/22Z 16/23Z 17/00Z 17/01Z 17/02Z 17/03Z 17/04Z 17/05Z 17/06Z 17/07Z 17/08Z 17/09Z
Temp93 87 85 84 81 80 78 76 74 73 74 74 74
Dewpt73 71 71 70 71 71 72 72 71 71 72 71 72
Altim30.04 30.04 30.04 30.05 30.08 30.09 30.10 30.10 30.09 30.09 30.08 30.09 30.10
VIS10 10 10 10 10 10 10 10 10 10 10 10 10
CIG35 250 250 120 -- 70 100 -- -- -- -- -- --
CoverBKNBKNBKNBKNFEWBKNBKNSCTCLRCLRCLRCLRCLR
FltCatVFRVFRVFRVFRVFRVFRVFRVFRVFRVFRVFRVFRVFR
WX--TS----------------------
WDir340150140150150160170140140200150180180
WSpd6 6 10 9 11 9 9 7 6 3 5 6 5
WGst-- -- -- -- -- -- -- -- -- -- -- -- --
Raw hourly METARs
KJAN 162054Z 34006KT 10SM BKN035 BKN043 34/23 A3004 RMK AO2 SLP166 T03390228 56017
KJAN 162154Z 15006KT 10SM TS SCT055CB BKN250 31/22 A3004 RMK AO2 TSB30 SLP167 OCNL LTGICCCCG SW TS SW MOV E T03060217
KJAN 162254Z 14010KT 10SM SCT055 BKN250 29/22 A3004 RMK AO2 TSE29 SLP167 TS MOV E T02940217
KJAN 162354Z 15009KT 10SM SCT055 BKN120 BKN250 29/21 A3005 RMK AO2 SLP169 T02890211 10344 20289 53003
KJAN 170054Z 15011KT 10SM FEW065 27/22 A3008 RMK AO2 SLP182 T02720217
KJAN 170154Z 16009KT 10SM FEW060 BKN070 BKN100 27/22 A3009 RMK AO2 SLP183 T02670217
KJAN 170254Z 17009KT 10SM SCT070 BKN100 26/22 A3010 RMK AO2 SLP187 T02560222 51018
KJAN 170354Z 14007KT 10SM SCT110 24/22 A3010 RMK AO2 SLP186 T02440222
KJAN 170454Z AUTO 14006KT 10SM CLR 23/22 A3009 RMK AO2 SLP186 T02330217
KJAN 170554Z AUTO 20003KT 10SM CLR 23/22 A3009 RMK AO2 SLP185 T02280217 10289 20228 403440228 57002
KJAN 170654Z AUTO 15005KT 10SM CLR 23/22 A3008 RMK AO2 SLP180 T02330222
KJAN 170754Z AUTO 18006KT 10SM CLR 23/22 A3009 RMK AO2 SLP183 T02330217
KJAN 170854Z AUTO 18005KT 10SM CLR 23/22 A3010 RMK AO2 SLP186 T02330222 53001



Page loaded:  09:32 UTC  |   02:32 AM Pacific  |   03:32 AM Mountain  |   04:32 AM Central  |   05:32 AM Eastern

 

ADVISORIES

FORECASTS

FORECASTS

OBSERVATIONS

USER TOOLS

ABOUT US